Time;durP1;ratioP1;P1;durP2;ratioP2;P2;SDS_P1;SDS_P2;PMS_P1;PMS_P2;Temp;Humidity;BMP_temperature;BMP_pressure;BME280_temperature;BME280_humidity;BME280_pressure;Samples;Min_cycle;Max_cycle;Signal;HPM_P1;HPM_P2
2023/05/25 00:02:23;;;;;;;18.70;7.03;;;;;;;;;;4988858;28;20027;-70
2023/05/25 00:04:48;;;;;;;20.27;8.60;;;;;;;;;;4990466;28;20496;-71
2023/05/25 00:07:15;;;;;;;27.17;6.90;;;;;;;;;;4985368;28;20465;-71
2023/05/25 00:09:40;;;;;;;17.10;7.40;;;;;;;;;;4990052;28;20031;-71
2023/05/25 00:12:06;;;;;;;20.23;6.55;;;;;;;;;;4987932;28;20030;-71
2023/05/25 00:14:31;;;;;;;20.38;7.60;;;;;;;;;;4992122;28;20018;-71
2023/05/25 00:16:57;;;;;;;21.00;6.65;;;;;;;;;;4989378;28;20584;-71
2023/05/25 00:19:22;;;;;;;24.38;8.30;;;;;;;;;;4990280;28;20022;-71
2023/05/25 00:21:47;;;;;;;19.58;6.22;;;;;;;;;;4988989;28;20033;-71
2023/05/25 00:24:12;;;;;;;19.70;7.88;;;;;;;;;;4987317;28;20022;-71
2023/05/25 00:26:38;;;;;;;20.20;7.45;;;;;;;;;;4987632;28;20022;-71
2023/05/25 00:29:03;;;;;;;21.43;7.63;;;;;;;;;;4987499;28;20022;-70
2023/05/25 00:31:31;;;;;;;23.88;7.50;;;;;;;;;;4992029;28;20269;-70
2023/05/25 00:33:56;;;;;;;21.25;7.18;;;;;;;;;;4986475;28;20069;-70
2023/05/25 00:36:23;;;;;;;39.97;8.70;;;;;;;;;;4989068;28;20031;-71
2023/05/25 00:38:48;;;;;;;20.70;7.13;;;;;;;;;;4982815;28;20030;-71
2023/05/25 00:41:14;;;;;;;24.35;7.55;;;;;;;;;;4987888;28;20098;-71
2023/05/25 00:43:39;;;;;;;19.88;7.28;;;;;;;;;;4985405;28;20531;-70
2023/05/25 00:46:05;;;;;;;20.97;7.83;;;;;;;;;;4991423;28;20030;-71
2023/05/25 00:48:30;;;;;;;15.57;6.93;;;;;;;;;;4984509;28;20265;-71
2023/05/25 00:50:56;;;;;;;19.88;6.80;;;;;;;;;;4988379;28;20069;-70
2023/05/25 00:53:22;;;;;;;16.48;6.72;;;;;;;;;;4986351;28;20069;-70
2023/05/25 00:56:05;;;;;;;24.23;7.43;;;;;;;;;;4986731;28;20035;-70
2023/05/25 00:58:32;;;;;;;20.02;7.82;;;;;;;;;;4990306;28;20022;-70
2023/05/25 01:00:58;;;;;;;21.25;7.60;;;;;;;;;;4989079;28;20631;-70
2023/05/25 01:03:27;;;;;;;30.80;8.00;;;;;;;;;;4989639;28;20030;-70
2023/05/25 01:05:53;;;;;;;16.17;6.55;;;;;;;;;;4990485;28;20030;-70
2023/05/25 01:08:20;;;;;;;16.40;7.10;;;;;;;;;;4989882;28;20050;-70
2023/05/25 01:10:47;;;;;;;22.25;7.25;;;;;;;;;;4990310;28;20019;-70
2023/05/25 01:13:13;;;;;;;18.02;7.00;;;;;;;;;;4986610;28;20054;-70
2023/05/25 01:15:38;;;;;;;25.77;7.07;;;;;;;;;;4989762;28;20053;-71
2023/05/25 01:18:04;;;;;;;29.50;9.13;;;;;;;;;;4990660;28;20029;-70
2023/05/25 01:20:29;;;;;;;22.27;6.85;;;;;;;;;;4989892;28;20553;-70
2023/05/25 01:23:13;;;;;;;19.25;7.28;;;;;;;;;;4989446;28;20389;-70
2023/05/25 01:25:44;;;;;;;17.17;6.57;;;;;;;;;;4990281;28;20019;-70
2023/05/25 01:28:11;;;;;;;22.02;5.93;;;;;;;;;;4985121;28;20057;-70
2023/05/25 01:30:38;;;;;;;17.70;6.90;;;;;;;;;;4981503;28;20015;-71
2023/05/25 01:33:05;;;;;;;16.55;7.00;;;;;;;;;;4979901;28;20042;-70
2023/05/25 01:35:30;;;;;;;24.65;7.32;;;;;;;;;;4984082;28;20805;-70
2023/05/25 01:37:57;;;;;;;24.67;7.45;;;;;;;;;;4985725;28;20101;-71
2023/05/25 01:40:22;;;;;;;14.15;6.35;;;;;;;;;;4986518;28;20401;-71
2023/05/25 01:42:47;;;;;;;17.33;6.85;;;;;;;;;;4984376;28;20026;-71
2023/05/25 01:45:13;;;;;;;14.23;6.63;;;;;;;;;;4987466;28;20382;-71
2023/05/25 01:47:38;;;;;;;14.10;6.55;;;;;;;;;;4985585;28;20273;-70
2023/05/25 01:50:11;;;;;;;17.90;6.70;;;;;;;;;;4982208;28;20022;-70
2023/05/25 01:52:43;;;;;;;18.73;7.28;;;;;;;;;;4977851;28;20055;-70
2023/05/25 01:55:11;;;;;;;15.98;7.70;;;;;;;;;;4981392;28;20493;-70
2023/05/25 01:57:37;;;;;;;16.52;6.70;;;;;;;;;;4986528;28;20105;-70
2023/05/25 02:00:03;;;;;;;13.68;6.75;;;;;;;;;;4983327;28;20034;-71
2023/05/25 02:02:30;;;;;;;18.05;5.88;;;;;;;;;;4982238;28;20520;-71
2023/05/25 02:04:55;;;;;;;18.30;6.53;;;;;;;;;;4984241;28;20428;-71
2023/05/25 02:07:24;;;;;;;12.90;6.55;;;;;;;;;;4989807;28;20086;-70
2023/05/25 02:09:49;;;;;;;18.63;6.80;;;;;;;;;;4982538;28;20496;-70
2023/05/25 02:12:15;;;;;;;22.25;7.63;;;;;;;;;;4983923;28;20034;-70
2023/05/25 02:14:40;;;;;;;21.02;7.15;;;;;;;;;;4988229;28;20026;-70
2023/05/25 02:17:06;;;;;;;19.92;6.93;;;;;;;;;;4987753;28;20117;-70
2023/05/25 02:19:32;;;;;;;20.33;6.97;;;;;;;;;;4989530;28;20020;-70
2023/05/25 02:21:57;;;;;;;15.65;7.90;;;;;;;;;;4989110;28;20022;-70
2023/05/25 02:24:26;;;;;;;28.73;8.30;;;;;;;;;;4990738;28;20477;-70
2023/05/25 02:26:51;;;;;;;18.08;7.65;;;;;;;;;;4987392;28;20454;-70
2023/05/25 02:29:16;;;;;;;19.20;8.93;;;;;;;;;;4988787;28;20029;-70
2023/05/25 02:31:41;;;;;;;20.90;6.97;;;;;;;;;;4990244;28;20024;-70
2023/05/25 02:34:06;;;;;;;12.52;5.32;;;;;;;;;;4987105;28;20040;-70
2023/05/25 02:36:33;;;;;;;13.47;6.77;;;;;;;;;;4989871;28;20036;-70
2023/05/25 02:38:59;;;;;;;27.23;7.47;;;;;;;;;;4988111;28;20843;-70
2023/05/25 02:41:25;;;;;;;23.05;7.25;;;;;;;;;;4987897;28;20027;-70
2023/05/25 02:43:50;;;;;;;15.43;7.07;;;;;;;;;;4988799;28;20053;-70
2023/05/25 02:46:15;;;;;;;14.32;6.28;;;;;;;;;;4984596;28;20697;-70
2023/05/25 02:48:41;;;;;;;21.90;7.18;;;;;;;;;;4989062;28;20097;-70
2023/05/25 02:51:06;;;;;;;17.08;7.38;;;;;;;;;;4987976;28;20736;-70
2023/05/25 02:53:32;;;;;;;21.30;6.80;;;;;;;;;;4990405;28;20094;-70
2023/05/25 02:55:57;;;;;;;19.27;7.28;;;;;;;;;;4986034;28;20019;-70
2023/05/25 02:58:22;;;;;;;19.85;7.55;;;;;;;;;;4985716;28;20092;-70
2023/05/25 03:00:49;;;;;;;24.87;7.50;;;;;;;;;;4986900;28;20050;-71
2023/05/25 03:03:14;;;;;;;20.15;6.97;;;;;;;;;;4988788;28;20292;-71
2023/05/25 03:05:39;;;;;;;22.25;7.47;;;;;;;;;;4986025;28;20022;-70
2023/05/25 03:08:05;;;;;;;18.08;7.43;;;;;;;;;;4988773;28;20055;-70
2023/05/25 03:10:30;;;;;;;14.88;7.18;;;;;;;;;;4988958;28;20015;-70
2023/05/25 03:12:55;;;;;;;18.47;7.00;;;;;;;;;;4989823;28;20030;-70
2023/05/25 03:15:21;;;;;;;19.25;6.97;;;;;;;;;;4987851;28;20269;-71
2023/05/25 03:17:47;;;;;;;20.48;7.95;;;;;;;;;;4987655;28;20018;-71
2023/05/25 03:20:14;;;;;;;19.80;6.93;;;;;;;;;;4982968;28;20018;-70
2023/05/25 03:22:39;;;;;;;16.80;7.72;;;;;;;;;;4987800;28;20041;-70
2023/05/25 03:25:04;;;;;;;21.73;8.27;;;;;;;;;;4988211;28;20476;-70
2023/05/25 03:27:30;;;;;;;19.35;7.70;;;;;;;;;;4990180;28;20254;-70
2023/05/25 03:29:55;;;;;;;21.20;7.03;;;;;;;;;;4987129;28;20025;-70
2023/05/25 03:32:21;;;;;;;18.63;7.40;;;;;;;;;;4987492;28;20451;-70
2023/05/25 03:34:47;;;;;;;15.48;7.03;;;;;;;;;;4987385;28;20713;-70
2023/05/25 03:37:12;;;;;;;18.87;7.40;;;;;;;;;;4984445;28;20053;-70
2023/05/25 03:39:37;;;;;;;24.60;7.57;;;;;;;;;;4985930;28;20273;-70
2023/05/25 03:42:02;;;;;;;24.45;7.10;;;;;;;;;;4987212;28;20473;-70
2023/05/25 03:44:28;;;;;;;24.88;8.40;;;;;;;;;;4988172;28;20037;-70
2023/05/25 03:46:53;;;;;;;17.77;7.50;;;;;;;;;;4991516;28;20046;-70
2023/05/25 03:49:18;;;;;;;22.77;8.57;;;;;;;;;;4990624;28;20296;-71
2023/05/25 03:51:43;;;;;;;19.80;8.33;;;;;;;;;;4992788;28;20084;-70
2023/05/25 03:54:08;;;;;;;28.40;8.67;;;;;;;;;;4989069;28;20293;-71
2023/05/25 03:56:33;;;;;;;22.27;9.27;;;;;;;;;;4992256;28;20756;-71
2023/05/25 03:58:59;;;;;;;21.35;9.25;;;;;;;;;;4990865;28;20022;-71
2023/05/25 04:01:25;;;;;;;25.58;8.10;;;;;;;;;;4991575;28;20027;-71
2023/05/25 04:03:51;;;;;;;25.92;9.60;;;;;;;;;;4987323;28;20488;-71
2023/05/25 04:06:18;;;;;;;34.65;10.25;;;;;;;;;;4990548;28;20010;-70
2023/05/25 04:08:44;;;;;;;26.00;8.40;;;;;;;;;;4988473;28;20026;-70
2023/05/25 04:11:09;;;;;;;30.27;9.55;;;;;;;;;;4991985;28;20076;-70
2023/05/25 04:13:35;;;;;;;24.05;8.35;;;;;;;;;;4989857;28;20105;-71
2023/05/25 04:16:00;;;;;;;31.40;8.80;;;;;;;;;;4989023;28;20073;-71
2023/05/25 04:18:25;;;;;;;34.30;9.52;;;;;;;;;;4988963;28;20033;-71
2023/05/25 04:20:50;;;;;;;23.27;9.50;;;;;;;;;;4990909;28;20027;-71
2023/05/25 04:23:18;;;;;;;33.77;9.00;;;;;;;;;;4992093;28;20364;-71
2023/05/25 04:25:44;;;;;;;37.85;10.25;;;;;;;;;;4989769;28;20752;-71
2023/05/25 04:28:11;;;;;;;36.05;8.80;;;;;;;;;;4990178;28;20077;-71
2023/05/25 04:30:36;;;;;;;26.38;9.07;;;;;;;;;;4988747;28;20021;-71
2023/05/25 04:33:02;;;;;;;31.50;9.50;;;;;;;;;;4985438;28;20026;-70
2023/05/25 04:35:27;;;;;;;27.70;9.05;;;;;;;;;;4990525;28;20022;-71
2023/05/25 04:37:53;;;;;;;29.42;10.23;;;;;;;;;;4982532;28;20045;-71
2023/05/25 04:40:20;;;;;;;30.02;9.63;;;;;;;;;;4988627;28;20026;-71
2023/05/25 04:42:46;;;;;;;26.02;8.80;;;;;;;;;;4987237;28;20454;-71
2023/05/25 04:45:16;;;;;;;27.33;9.60;;;;;;;;;;4987242;28;20031;-70
2023/05/25 04:47:41;;;;;;;28.85;9.32;;;;;;;;;;4986515;28;20040;-70
2023/05/25 04:50:08;;;;;;;30.45;9.25;;;;;;;;;;4991707;28;20089;-71
2023/05/25 04:52:33;;;;;;;23.90;9.90;;;;;;;;;;4989454;28;20022;-70
2023/05/25 04:54:59;;;;;;;24.23;9.93;;;;;;;;;;4985627;28;20042;-70
2023/05/25 04:57:26;;;;;;;36.35;9.57;;;;;;;;;;4988449;28;20269;-70
2023/05/25 04:59:52;;;;;;;24.20;9.32;;;;;;;;;;4986673;28;20050;-70
2023/05/25 05:02:17;;;;;;;24.93;10.77;;;;;;;;;;4988007;28;20187;-70
2023/05/25 05:04:42;;;;;;;34.67;8.83;;;;;;;;;;4988861;28;20285;-70
2023/05/25 05:07:07;;;;;;;25.10;9.32;;;;;;;;;;4986438;28;20297;-71
2023/05/25 05:09:33;;;;;;;22.45;7.70;;;;;;;;;;4987198;28;20022;-71
2023/05/25 05:11:58;;;;;;;23.13;8.77;;;;;;;;;;4987424;28;20018;-71
2023/05/25 05:14:23;;;;;;;22.13;10.03;;;;;;;;;;4988079;28;20614;-70
2023/05/25 05:16:48;;;;;;;27.75;10.93;;;;;;;;;;4985487;28;20412;-70
2023/05/25 05:19:13;;;;;;;20.77;9.60;;;;;;;;;;4980463;28;20046;-70
2023/05/25 05:21:39;;;;;;;32.40;10.23;;;;;;;;;;4981945;28;20265;-70
2023/05/25 05:24:04;;;;;;;28.00;9.50;;;;;;;;;;4987522;28;20049;-70
2023/05/25 05:26:29;;;;;;;23.73;9.77;;;;;;;;;;4985275;28;20273;-70
2023/05/25 05:28:55;;;;;;;29.48;10.75;;;;;;;;;;4988913;28;20092;-70
2023/05/25 05:31:20;;;;;;;28.10;10.82;;;;;;;;;;4989612;28;20026;-70
2023/05/25 05:33:45;;;;;;;26.20;9.90;;;;;;;;;;4985487;28;20014;-70
2023/05/25 05:36:10;;;;;;;28.63;11.02;;;;;;;;;;4984771;28;20732;-70
2023/05/25 05:38:36;;;;;;;26.25;9.68;;;;;;;;;;4981430;28;20034;-70
2023/05/25 05:41:01;;;;;;;35.60;9.18;;;;;;;;;;4986178;28;20113;-70
2023/05/25 05:43:27;;;;;;;26.90;9.70;;;;;;;;;;4978246;28;20026;-70
2023/05/25 05:45:52;;;;;;;30.75;9.68;;;;;;;;;;4985373;28;20025;-71
2023/05/25 05:48:17;;;;;;;25.67;9.25;;;;;;;;;;4984198;28;20026;-70
2023/05/25 05:50:42;;;;;;;32.20;9.40;;;;;;;;;;4985893;28;20102;-70
2023/05/25 05:53:08;;;;;;;26.08;8.88;;;;;;;;;;4982293;28;20273;-70
2023/05/25 05:55:33;;;;;;;27.50;8.70;;;;;;;;;;4981221;28;20023;-70
2023/05/25 05:57:59;;;;;;;27.00;8.10;;;;;;;;;;4980001;28;20014;-70
2023/05/25 06:00:24;;;;;;;30.57;9.07;;;;;;;;;;4977534;28;20026;-70
2023/05/25 06:02:49;;;;;;;23.73;8.93;;;;;;;;;;4981425;28;20281;-70
2023/05/25 06:05:14;;;;;;;27.80;9.60;;;;;;;;;;4984170;28;21157;-70
2023/05/25 06:07:40;;;;;;;36.08;9.43;;;;;;;;;;4987981;28;20395;-70
2023/05/25 06:10:05;;;;;;;32.05;10.45;;;;;;;;;;4988036;28;20069;-70
2023/05/25 06:12:30;;;;;;;30.38;9.30;;;;;;;;;;4983781;28;20481;-70
2023/05/25 06:14:56;;;;;;;27.92;10.80;;;;;;;;;;4985432;28;20436;-70
2023/05/25 06:17:22;;;;;;;27.70;8.70;;;;;;;;;;4986647;28;20101;-70
2023/05/25 06:19:48;;;;;;;23.30;8.65;;;;;;;;;;4986000;28;20018;-70
2023/05/25 06:22:13;;;;;;;28.92;9.07;;;;;;;;;;4985130;28;20026;-69
2023/05/25 06:24:39;;;;;;;26.83;9.23;;;;;;;;;;4977859;28;20023;-69
2023/05/25 06:27:04;;;;;;;26.90;9.37;;;;;;;;;;4983989;28;20321;-69
2023/05/25 06:29:30;;;;;;;25.75;8.98;;;;;;;;;;4983126;28;20368;-69
2023/05/25 06:31:55;;;;;;;24.98;8.90;;;;;;;;;;4983562;28;20541;-69
2023/05/25 06:34:20;;;;;;;29.40;8.83;;;;;;;;;;4983978;28;20069;-69
2023/05/25 06:36:46;;;;;;;29.50;8.47;;;;;;;;;;4983269;28;20691;-70
2023/05/25 06:39:11;;;;;;;36.10;9.32;;;;;;;;;;4986473;28;20277;-70
2023/05/25 06:41:37;;;;;;;32.03;9.18;;;;;;;;;;4979199;28;20528;-70
2023/05/25 06:44:02;;;;;;;33.20;8.85;;;;;;;;;;4984531;28;20047;-70
2023/05/25 06:46:28;;;;;;;25.90;7.97;;;;;;;;;;4982158;28;20072;-70
2023/05/25 06:48:53;;;;;;;33.90;7.78;;;;;;;;;;4985057;28;20022;-70
2023/05/25 06:51:18;;;;;;;23.57;7.40;;;;;;;;;;4987444;28;20050;-70
2023/05/25 06:53:44;;;;;;;33.15;9.40;;;;;;;;;;4984185;28;20331;-70
2023/05/25 06:56:09;;;;;;;28.35;8.68;;;;;;;;;;4985850;28;20110;-70
2023/05/25 06:58:34;;;;;;;33.28;9.07;;;;;;;;;;4988282;28;20026;-70
2023/05/25 07:00:59;;;;;;;32.35;9.07;;;;;;;;;;4986807;28;20062;-70
2023/05/25 07:03:25;;;;;;;26.35;7.82;;;;;;;;;;4987694;28;20026;-70
2023/05/25 07:05:50;;;;;;;45.70;9.23;;;;;;;;;;4985978;28;20506;-70
2023/05/25 07:08:15;;;;;;;24.87;7.80;;;;;;;;;;4986740;28;20266;-71
2023/05/25 07:10:40;;;;;;;30.43;7.57;;;;;;;;;;4982287;28;20499;-69
2023/05/25 07:13:05;;;;;;;34.67;8.40;;;;;;;;;;4989272;28;20265;-69
2023/05/25 07:15:30;;;;;;;28.87;8.50;;;;;;;;;;4985646;28;20027;-69
2023/05/25 07:17:56;;;;;;;26.90;8.03;;;;;;;;;;4985596;28;20652;-69
2023/05/25 07:20:21;;;;;;;18.17;7.97;;;;;;;;;;4981317;28;20350;-70
2023/05/25 07:22:47;;;;;;;20.42;7.63;;;;;;;;;;4986116;28;20030;-69
2023/05/25 07:25:13;;;;;;;25.58;7.72;;;;;;;;;;4990604;28;20018;-69
2023/05/25 07:27:38;;;;;;;27.55;7.63;;;;;;;;;;4991857;28;20098;-69
2023/05/25 07:30:05;;;;;;;26.90;9.25;;;;;;;;;;4991252;28;20161;-69
2023/05/25 07:32:30;;;;;;;33.13;7.97;;;;;;;;;;4990727;28;20027;-69
2023/05/25 07:34:55;;;;;;;24.52;7.05;;;;;;;;;;4986899;28;20478;-69
2023/05/25 07:37:20;;;;;;;15.23;6.47;;;;;;;;;;4992414;28;20033;-70
2023/05/25 07:39:46;;;;;;;24.57;6.97;;;;;;;;;;4991085;28;20053;-70
2023/05/25 07:42:11;;;;;;;25.50;7.03;;;;;;;;;;4982611;28;20634;-70
2023/05/25 07:44:36;;;;;;;24.57;7.07;;;;;;;;;;4990104;28;20703;-70
2023/05/25 07:47:01;;;;;;;22.67;7.33;;;;;;;;;;4989239;28;20018;-70
2023/05/25 07:49:26;;;;;;;17.83;5.97;;;;;;;;;;4990460;28;20281;-70
2023/05/25 07:51:52;;;;;;;23.40;6.17;;;;;;;;;;4989523;28;20254;-70
2023/05/25 07:54:17;;;;;;;20.30;5.20;;;;;;;;;;4987422;28;20269;-70
2023/05/25 07:56:42;;;;;;;18.40;4.57;;;;;;;;;;4988702;28;20051;-70
2023/05/25 07:59:07;;;;;;;14.73;5.28;;;;;;;;;;4989768;28;20027;-70
2023/05/25 08:01:33;;;;;;;22.70;6.75;;;;;;;;;;4991165;28;20105;-70
2023/05/25 08:03:58;;;;;;;20.92;6.82;;;;;;;;;;4986519;28;20397;-70
2023/05/25 08:06:23;;;;;;;20.60;5.82;;;;;;;;;;4985478;28;20085;-70
2023/05/25 08:08:48;;;;;;;16.03;5.63;;;;;;;;;;4987574;28;20018;-70
2023/05/25 08:11:14;;;;;;;16.17;5.95;;;;;;;;;;4989402;28;20273;-70
2023/05/25 08:13:39;;;;;;;24.38;6.07;;;;;;;;;;4984281;28;20022;-70
2023/05/25 08:16:05;;;;;;;16.77;6.20;;;;;;;;;;4981757;28;20027;-70
2023/05/25 08:18:30;;;;;;;23.67;7.40;;;;;;;;;;4980130;28;20479;-70
2023/05/25 08:20:56;;;;;;;26.95;6.57;;;;;;;;;;4988360;28;20592;-70
2023/05/25 08:23:21;;;;;;;23.38;6.90;;;;;;;;;;4989725;28;20030;-70
2023/05/25 08:25:46;;;;;;;20.27;6.57;;;;;;;;;;4987256;28;20088;-70
2023/05/25 08:28:11;;;;;;;11.63;5.70;;;;;;;;;;4985052;28;20109;-70
2023/05/25 08:30:36;;;;;;;21.47;6.73;;;;;;;;;;4988195;28;20392;-70
2023/05/25 08:33:01;;;;;;;16.57;6.00;;;;;;;;;;4988976;28;20134;-70
2023/05/25 08:35:27;;;;;;;24.60;7.23;;;;;;;;;;4986698;28;20077;-70
2023/05/25 08:37:52;;;;;;;25.05;6.25;;;;;;;;;;4987347;28;20269;-70
2023/05/25 08:40:17;;;;;;;19.10;5.97;;;;;;;;;;4987947;28;20019;-70
2023/05/25 08:42:43;;;;;;;17.48;5.07;;;;;;;;;;4989036;28;20030;-70
2023/05/25 08:45:09;;;;;;;18.00;5.55;;;;;;;;;;4985294;28;20044;-70
2023/05/25 08:47:39;;;;;;;16.80;5.35;;;;;;;;;;4988147;28;20483;-70
2023/05/25 08:50:04;;;;;;;19.08;6.43;;;;;;;;;;4987854;28;20033;-70
2023/05/25 08:52:32;;;;;;;22.05;5.72;;;;;;;;;;4987492;28;20023;-70
2023/05/25 08:55:00;;;;;;;20.35;5.38;;;;;;;;;;4988039;28;20108;-70
2023/05/25 08:57:31;;;;;;;9.35;5.10;;;;;;;;;;4981892;28;20026;-70
2023/05/25 08:59:59;;;;;;;18.17;5.43;;;;;;;;;;4987170;28;20033;-70
2023/05/25 09:02:33;;;;;;;19.13;4.82;;;;;;;;;;4987254;28;20030;-70
2023/05/25 09:05:00;;;;;;;20.15;5.88;;;;;;;;;;4984630;28;20381;-70
2023/05/25 09:07:26;;;;;;;17.45;5.22;;;;;;;;;;4985390;28;20018;-70
2023/05/25 09:09:51;;;;;;;14.65;6.47;;;;;;;;;;4985778;28;20041;-70
2023/05/25 09:12:17;;;;;;;16.90;5.95;;;;;;;;;;4987085;28;20028;-70
2023/05/25 09:14:46;;;;;;;13.85;5.93;;;;;;;;;;4990006;28;20050;-70
2023/05/25 09:17:12;;;;;;;13.75;5.55;;;;;;;;;;4985449;28;20072;-70
2023/05/25 09:19:38;;;;;;;13.93;5.78;;;;;;;;;;4986614;28;20108;-71
2023/05/25 09:22:03;;;;;;;17.05;5.63;;;;;;;;;;4984986;28;20489;-70
2023/05/25 09:24:29;;;;;;;18.27;5.47;;;;;;;;;;4981302;28;20097;-70
2023/05/25 09:26:54;;;;;;;10.35;4.65;;;;;;;;;;4985017;28;20025;-70
2023/05/25 09:29:19;;;;;;;19.70;5.10;;;;;;;;;;4986788;28;20014;-70
2023/05/25 09:31:45;;;;;;;8.77;3.57;;;;;;;;;;4987849;28;20014;-70
2023/05/25 09:34:11;;;;;;;14.60;5.18;;;;;;;;;;4986272;28;20760;-70
2023/05/25 09:36:39;;;;;;;13.95;5.15;;;;;;;;;;4986335;28;20404;-70
2023/05/25 09:39:06;;;;;;;8.48;4.90;;;;;;;;;;4979234;28;20057;-70
2023/05/25 09:41:31;;;;;;;14.93;5.63;;;;;;;;;;4984780;28;20042;-70
2023/05/25 09:43:56;;;;;;;19.23;6.27;;;;;;;;;;4976157;28;20022;-70
2023/05/25 09:46:21;;;;;;;12.53;5.43;;;;;;;;;;4982719;28;20483;-70
2023/05/25 09:48:47;;;;;;;18.67;6.37;;;;;;;;;;4980576;28;20289;-70
2023/05/25 09:51:12;;;;;;;14.15;6.32;;;;;;;;;;4986740;28;20022;-70
2023/05/25 09:53:37;;;;;;;13.50;5.40;;;;;;;;;;4986039;28;20029;-70
2023/05/25 09:56:02;;;;;;;17.13;5.80;;;;;;;;;;4983699;28;20651;-70
2023/05/25 09:58:28;;;;;;;18.50;6.30;;;;;;;;;;4984120;28;20033;-70
2023/05/25 10:00:56;;;;;;;13.90;5.30;;;;;;;;;;4981590;28;20273;-70
2023/05/25 10:03:21;;;;;;;14.85;5.30;;;;;;;;;;4982324;28;20293;-70
2023/05/25 10:05:46;;;;;;;15.23;6.47;;;;;;;;;;4982169;28;20505;-70
2023/05/25 10:08:12;;;;;;;15.40;5.78;;;;;;;;;;4984041;28;20382;-71
2023/05/25 10:10:38;;;;;;;16.50;4.55;;;;;;;;;;4983351;28;20033;-71
2023/05/25 10:13:06;;;;;;;12.35;4.72;;;;;;;;;;4983572;28;20058;-71
2023/05/25 10:15:32;;;;;;;9.52;4.07;;;;;;;;;;4988681;28;20177;-71
2023/05/25 10:18:00;;;;;;;12.10;4.65;;;;;;;;;;4985493;28;20101;-71
2023/05/25 10:20:25;;;;;;;11.85;4.75;;;;;;;;;;4986161;28;20474;-71
2023/05/25 10:22:55;;;;;;;14.50;5.38;;;;;;;;;;4983359;28;20105;-71
2023/05/25 10:25:24;;;;;;;9.57;4.57;;;;;;;;;;4988273;28;20552;-71
2023/05/25 10:28:00;;;;;;;14.45;5.32;;;;;;;;;;4984127;28;20018;-71
2023/05/25 10:30:28;;;;;;;14.27;4.68;;;;;;;;;;4983670;28;20030;-71
2023/05/25 10:32:55;;;;;;;9.98;4.15;;;;;;;;;;4983660;28;20014;-71
2023/05/25 10:35:20;;;;;;;9.30;3.95;;;;;;;;;;4982391;28;20490;-71
2023/05/25 10:37:45;;;;;;;12.88;4.63;;;;;;;;;;4988583;28;20014;-70
2023/05/25 10:40:12;;;;;;;24.55;5.05;;;;;;;;;;4983176;28;20568;-70
2023/05/25 10:42:38;;;;;;;17.50;5.82;;;;;;;;;;4986820;28;20018;-70
2023/05/25 10:45:04;;;;;;;13.07;5.05;;;;;;;;;;4981697;28;20532;-70
2023/05/25 10:47:29;;;;;;;14.52;4.93;;;;;;;;;;4983907;28;20681;-70
2023/05/25 10:49:56;;;;;;;14.02;5.57;;;;;;;;;;4985555;28;20019;-70
2023/05/25 10:52:25;;;;;;;9.63;4.35;;;;;;;;;;4989916;28;20029;-70
2023/05/25 10:54:54;;;;;;;10.57;5.25;;;;;;;;;;4981260;28;20030;-70
2023/05/25 10:57:23;;;;;;;15.05;5.75;;;;;;;;;;4991021;28;20030;-70
2023/05/25 10:59:50;;;;;;;13.98;4.70;;;;;;;;;;4990267;28;20033;-70
2023/05/25 11:02:15;;;;;;;10.45;5.03;;;;;;;;;;4985755;28;20058;-71
2023/05/25 11:04:41;;;;;;;16.65;5.57;;;;;;;;;;4988744;28;20053;-70
2023/05/25 11:07:12;;;;;;;17.23;5.40;;;;;;;;;;4987532;28;20014;-70
2023/05/25 11:09:39;;;;;;;12.48;4.40;;;;;;;;;;4989520;28;20616;-70
2023/05/25 11:12:05;;;;;;;15.60;5.80;;;;;;;;;;4992362;28;20038;-70
2023/05/25 11:14:31;;;;;;;12.93;4.60;;;;;;;;;;4986023;28;20042;-70
2023/05/25 11:17:13;;;;;;;11.93;4.78;;;;;;;;;;4987511;28;20477;-70
2023/05/25 11:19:46;;;;;;;14.88;5.50;;;;;;;;;;4985784;28;20030;-70
2023/05/25 11:22:12;;;;;;;14.80;4.95;;;;;;;;;;4985112;28;20030;-70
2023/05/25 11:24:37;;;;;;;11.95;5.55;;;;;;;;;;4985575;28;20026;-70
2023/05/25 11:27:04;;;;;;;15.33;5.93;;;;;;;;;;4987566;28;20030;-70
2023/05/25 11:29:30;;;;;;;14.80;5.93;;;;;;;;;;4986421;28;20054;-70
2023/05/25 11:31:56;;;;;;;15.80;5.45;;;;;;;;;;4984875;28;20073;-70
2023/05/25 11:34:23;;;;;;;9.38;4.97;;;;;;;;;;4989073;28;20025;-70
2023/05/25 11:36:52;;;;;;;16.35;5.78;;;;;;;;;;4982647;28;20168;-70
2023/05/25 11:39:19;;;;;;;17.13;5.45;;;;;;;;;;4985987;28;20018;-70
2023/05/25 11:41:48;;;;;;;23.40;7.45;;;;;;;;;;4991315;28;20451;-70
2023/05/25 11:44:14;;;;;;;16.95;6.85;;;;;;;;;;4988605;28;20027;-70
2023/05/25 11:46:42;;;;;;;20.87;7.63;;;;;;;;;;4989439;28;20073;-70
2023/05/25 11:49:08;;;;;;;13.80;7.65;;;;;;;;;;4986480;28;20281;-70
2023/05/25 11:51:35;;;;;;;17.65;8.57;;;;;;;;;;4987996;28;20026;-70
2023/05/25 11:54:00;;;;;;;15.90;9.65;;;;;;;;;;4987037;28;20520;-70
2023/05/25 11:56:25;;;;;;;24.90;11.13;;;;;;;;;;4985467;28;20023;-70
2023/05/25 11:58:51;;;;;;;27.20;10.88;;;;;;;;;;4987041;28;20505;-70
2023/05/25 12:01:19;;;;;;;20.30;9.15;;;;;;;;;;4990836;28;20015;-70
2023/05/25 12:03:46;;;;;;;23.13;9.88;;;;;;;;;;4983363;28;20026;-70
2023/05/25 12:06:27;;;;;;;19.40;10.15;;;;;;;;;;4981769;28;20048;-70
2023/05/25 12:08:53;;;;;;;32.85;12.95;;;;;;;;;;4987905;28;20022;-70
2023/05/25 12:11:26;;;;;;;22.40;11.15;;;;;;;;;;4984347;28;20038;-70
2023/05/25 12:13:52;;;;;;;26.58;11.90;;;;;;;;;;4986393;28;20079;-70
2023/05/25 12:16:17;;;;;;;18.48;11.23;;;;;;;;;;4987819;28;20123;-70
2023/05/25 12:18:42;;;;;;;32.03;13.55;;;;;;;;;;4983902;28;20513;-70
2023/05/25 12:21:09;;;;;;;20.40;11.90;;;;;;;;;;4986495;28;20030;-70
2023/05/25 12:23:34;;;;;;;25.25;12.18;;;;;;;;;;4988021;28;20057;-70
2023/05/25 12:26:12;;;;;;;25.80;10.85;;;;;;;;;;4985612;28;20057;-70
2023/05/25 12:28:37;;;;;;;22.27;12.07;;;;;;;;;;4987571;28;20084;-70
2023/05/25 12:31:18;;;;;;;20.23;12.20;;;;;;;;;;4986653;28;20477;-70
2023/05/25 12:33:43;;;;;;;18.15;11.20;;;;;;;;;;4980080;28;20289;-70
2023/05/25 12:36:08;;;;;;;21.27;11.90;;;;;;;;;;4990999;28;20233;-70
2023/05/25 12:38:33;;;;;;;21.43;9.43;;;;;;;;;;4981443;28;20759;-70
2023/05/25 12:41:06;;;;;;;25.47;9.53;;;;;;;;;;4985798;28;20301;-70
2023/05/25 12:43:41;;;;;;;13.20;7.82;;;;;;;;;;4986395;28;20030;-70
2023/05/25 12:46:07;;;;;;;12.13;7.30;;;;;;;;;;4984644;28;20028;-70
2023/05/25 12:48:32;;;;;;;15.10;6.57;;;;;;;;;;4981406;28;20026;-70
2023/05/25 12:50:57;;;;;;;21.23;7.45;;;;;;;;;;4986347;28;20269;-70
2023/05/25 12:53:22;;;;;;;9.35;5.47;;;;;;;;;;4986821;28;20101;-70
2023/05/25 12:55:48;;;;;;;19.27;6.20;;;;;;;;;;4984382;28;20143;-70
2023/05/25 12:58:25;;;;;;;11.13;5.57;;;;;;;;;;4984045;28;20351;-70
2023/05/25 13:00:51;;;;;;;17.75;7.65;;;;;;;;;;4985427;28;20092;-71
2023/05/25 13:03:16;;;;;;;17.83;5.72;;;;;;;;;;4982613;28;20393;-71
2023/05/25 13:05:42;;;;;;;15.50;5.83;;;;;;;;;;4984840;28;20586;-71
2023/05/25 13:08:07;;;;;;;12.98;6.70;;;;;;;;;;4987373;28;20273;-71
2023/05/25 13:10:33;;;;;;;14.45;5.63;;;;;;;;;;4984507;28;20021;-71
2023/05/25 13:12:59;;;;;;;10.05;5.28;;;;;;;;;;4988307;28;20072;-71
2023/05/25 13:15:25;;;;;;;11.35;5.20;;;;;;;;;;4983190;28;20389;-71
2023/05/25 13:17:51;;;;;;;13.80;5.07;;;;;;;;;;4977363;28;20038;-71
2023/05/25 13:20:17;;;;;;;11.85;5.30;;;;;;;;;;4983106;28;20465;-71
2023/05/25 13:22:44;;;;;;;11.18;5.32;;;;;;;;;;4982085;28;20022;-71
2023/05/25 13:25:09;;;;;;;12.45;6.07;;;;;;;;;;4984123;28;20072;-71
2023/05/25 13:27:40;;;;;;;16.05;5.57;;;;;;;;;;4987124;28;20018;-71
2023/05/25 13:30:05;;;;;;;18.48;5.53;;;;;;;;;;4988883;28;20022;-71
2023/05/25 13:32:31;;;;;;;11.73;4.70;;;;;;;;;;4987581;28;20644;-71
2023/05/25 13:34:58;;;;;;;10.88;4.68;;;;;;;;;;4988566;28;20023;-72
2023/05/25 13:37:23;;;;;;;13.00;5.30;;;;;;;;;;4982304;28;20544;-71
2023/05/25 13:39:49;;;;;;;12.60;5.70;;;;;;;;;;4987886;28;20022;-71
2023/05/25 13:42:14;;;;;;;14.00;5.80;;;;;;;;;;4983681;28;20038;-71
2023/05/25 13:44:39;;;;;;;19.70;6.65;;;;;;;;;;4991333;28;20050;-71
2023/05/25 13:47:04;;;;;;;14.90;6.07;;;;;;;;;;4984782;28;20022;-71
2023/05/25 13:49:29;;;;;;;13.15;5.68;;;;;;;;;;4978932;28;20357;-71
2023/05/25 13:51:55;;;;;;;26.30;6.70;;;;;;;;;;4987056;28;20440;-71
2023/05/25 13:54:20;;;;;;;17.00;5.90;;;;;;;;;;4988038;28;20105;-71
2023/05/25 13:56:45;;;;;;;15.40;7.18;;;;;;;;;;4983973;28;20277;-71
2023/05/25 13:59:10;;;;;;;16.13;6.53;;;;;;;;;;4987224;28;20042;-71
2023/05/25 14:01:36;;;;;;;22.00;6.47;;;;;;;;;;4984966;28;20037;-71
2023/05/25 14:04:02;;;;;;;14.77;6.10;;;;;;;;;;4984614;28;20037;-71
2023/05/25 14:06:27;;;;;;;13.75;5.80;;;;;;;;;;4988031;28;20264;-72
2023/05/25 14:08:53;;;;;;;14.50;5.13;;;;;;;;;;4984246;28;20025;-72
2023/05/25 14:11:18;;;;;;;15.57;5.38;;;;;;;;;;4986713;28;20385;-72
2023/05/25 14:13:43;;;;;;;12.85;5.72;;;;;;;;;;4983334;28;20058;-72
2023/05/25 14:16:08;;;;;;;13.83;5.67;;;;;;;;;;4980699;28;20072;-72
2023/05/25 14:18:34;;;;;;;13.85;6.00;;;;;;;;;;4985539;28;20474;-72
2023/05/25 14:20:59;;;;;;;21.60;7.13;;;;;;;;;;4988280;28;20496;-71
2023/05/25 14:23:24;;;;;;;14.23;6.22;;;;;;;;;;4981862;28;20108;-71